sensor_id;sensor_type;location;lat;lon;timestamp;P1;durP1;ratioP1;P2;durP2;ratioP2
3347;SDS011;1687;49.540;8.574;2023-08-06T00:00:25;15.50;;;4.67;;
3347;SDS011;1687;49.540;8.574;2023-08-06T00:02:51;9.70;;;4.90;;
3347;SDS011;1687;49.540;8.574;2023-08-06T00:05:17;15.00;;;5.40;;
3347;SDS011;1687;49.540;8.574;2023-08-06T00:07:48;10.93;;;4.80;;
3347;SDS011;1687;49.540;8.574;2023-08-06T00:10:15;14.77;;;4.32;;
3347;SDS011;1687;49.540;8.574;2023-08-06T00:12:42;6.80;;;4.03;;
3347;SDS011;1687;49.540;8.574;2023-08-06T00:15:09;7.53;;;3.73;;
3347;SDS011;1687;49.540;8.574;2023-08-06T00:17:35;11.10;;;4.30;;
3347;SDS011;1687;49.540;8.574;2023-08-06T00:20:02;4.97;;;3.30;;
3347;SDS011;1687;49.540;8.574;2023-08-06T00:22:30;5.83;;;3.40;;
3347;SDS011;1687;49.540;8.574;2023-08-06T00:24:57;7.65;;;3.75;;
3347;SDS011;1687;49.540;8.574;2023-08-06T00:27:23;10.20;;;3.67;;
3347;SDS011;1687;49.540;8.574;2023-08-06T00:29:48;9.80;;;4.60;;
3347;SDS011;1687;49.540;8.574;2023-08-06T00:32:14;8.33;;;3.23;;
3347;SDS011;1687;49.540;8.574;2023-08-06T00:34:40;6.20;;;3.20;;
3347;SDS011;1687;49.540;8.574;2023-08-06T00:37:06;7.40;;;4.33;;
3347;SDS011;1687;49.540;8.574;2023-08-06T00:39:31;7.60;;;5.03;;
3347;SDS011;1687;49.540;8.574;2023-08-06T00:41:57;6.40;;;4.00;;
3347;SDS011;1687;49.540;8.574;2023-08-06T00:44:23;8.23;;;4.27;;
3347;SDS011;1687;49.540;8.574;2023-08-06T00:46:49;8.30;;;4.50;;
3347;SDS011;1687;49.540;8.574;2023-08-06T00:49:15;10.23;;;4.07;;
3347;SDS011;1687;49.540;8.574;2023-08-06T00:51:40;7.97;;;3.90;;
3347;SDS011;1687;49.540;8.574;2023-08-06T00:54:08;7.73;;;4.00;;
3347;SDS011;1687;49.540;8.574;2023-08-06T00:56:34;7.53;;;3.60;;
3347;SDS011;1687;49.540;8.574;2023-08-06T00:59:01;8.93;;;3.72;;
3347;SDS011;1687;49.540;8.574;2023-08-06T01:01:29;6.77;;;3.73;;
3347;SDS011;1687;49.540;8.574;2023-08-06T01:03:55;6.63;;;3.60;;
3347;SDS011;1687;49.540;8.574;2023-08-06T01:06:23;23.00;;;3.63;;
3347;SDS011;1687;49.540;8.574;2023-08-06T01:08:58;6.63;;;3.20;;
3347;SDS011;1687;49.540;8.574;2023-08-06T01:14:41;6.40;;;3.40;;
3347;SDS011;1687;49.540;8.574;2023-08-06T01:17:17;17.53;;;4.00;;
3347;SDS011;1687;49.540;8.574;2023-08-06T01:19:43;8.43;;;3.50;;
3347;SDS011;1687;49.540;8.574;2023-08-06T01:22:09;7.50;;;3.77;;
3347;SDS011;1687;49.540;8.574;2023-08-06T01:24:34;6.10;;;3.70;;
3347;SDS011;1687;49.540;8.574;2023-08-06T01:29:33;5.57;;;3.33;;
3347;SDS011;1687;49.540;8.574;2023-08-06T01:32:05;6.50;;;2.90;;
3347;SDS011;1687;49.540;8.574;2023-08-06T01:34:35;6.47;;;3.97;;
3347;SDS011;1687;49.540;8.574;2023-08-06T01:37:04;5.20;;;3.33;;
3347;SDS011;1687;49.540;8.574;2023-08-06T01:39:32;8.47;;;3.73;;
3347;SDS011;1687;49.540;8.574;2023-08-06T01:41:58;7.70;;;3.20;;
3347;SDS011;1687;49.540;8.574;2023-08-06T01:44:24;11.70;;;4.10;;
3347;SDS011;1687;49.540;8.574;2023-08-06T01:46:49;4.60;;;2.70;;
3347;SDS011;1687;49.540;8.574;2023-08-06T01:49:15;9.30;;;2.90;;
3347;SDS011;1687;49.540;8.574;2023-08-06T01:51:41;5.23;;;2.90;;
3347;SDS011;1687;49.540;8.574;2023-08-06T01:54:06;6.23;;;2.60;;
3347;SDS011;1687;49.540;8.574;2023-08-06T01:56:32;7.47;;;3.87;;
3347;SDS011;1687;49.540;8.574;2023-08-06T01:58:58;10.53;;;3.13;;
3347;SDS011;1687;49.540;8.574;2023-08-06T02:01:23;4.50;;;2.67;;
3347;SDS011;1687;49.540;8.574;2023-08-06T02:03:49;18.13;;;3.93;;
3347;SDS011;1687;49.540;8.574;2023-08-06T02:06:15;10.43;;;3.63;;
3347;SDS011;1687;49.540;8.574;2023-08-06T02:08:41;7.50;;;3.47;;
3347;SDS011;1687;49.540;8.574;2023-08-06T02:11:06;6.88;;;2.65;;
3347;SDS011;1687;49.540;8.574;2023-08-06T02:13:32;11.03;;;3.80;;
3347;SDS011;1687;49.540;8.574;2023-08-06T02:15:58;9.27;;;3.37;;
3347;SDS011;1687;49.540;8.574;2023-08-06T02:18:23;16.03;;;4.10;;
3347;SDS011;1687;49.540;8.574;2023-08-06T02:20:56;7.60;;;3.27;;
3347;SDS011;1687;49.540;8.574;2023-08-06T02:23:23;6.63;;;3.60;;
3347;SDS011;1687;49.540;8.574;2023-08-06T02:25:53;5.73;;;3.00;;
3347;SDS011;1687;49.540;8.574;2023-08-06T02:28:30;8.90;;;3.30;;
3347;SDS011;1687;49.540;8.574;2023-08-06T02:30:56;13.07;;;3.08;;
3347;SDS011;1687;49.540;8.574;2023-08-06T02:33:22;4.60;;;2.30;;
3347;SDS011;1687;49.540;8.574;2023-08-06T02:35:48;8.60;;;2.70;;
3347;SDS011;1687;49.540;8.574;2023-08-06T02:38:13;7.90;;;3.10;;
3347;SDS011;1687;49.540;8.574;2023-08-06T02:40:43;5.57;;;2.93;;
3347;SDS011;1687;49.540;8.574;2023-08-06T02:43:10;5.13;;;2.87;;
3347;SDS011;1687;49.540;8.574;2023-08-06T02:45:36;8.37;;;3.70;;
3347;SDS011;1687;49.540;8.574;2023-08-06T02:48:01;8.97;;;4.20;;
3347;SDS011;1687;49.540;8.574;2023-08-06T02:50:27;5.03;;;2.50;;
3347;SDS011;1687;49.540;8.574;2023-08-06T02:52:53;9.00;;;3.47;;
3347;SDS011;1687;49.540;8.574;2023-08-06T02:55:19;5.80;;;3.17;;
3347;SDS011;1687;49.540;8.574;2023-08-06T02:57:45;6.97;;;3.33;;
3347;SDS011;1687;49.540;8.574;2023-08-06T03:00:10;5.80;;;3.37;;
3347;SDS011;1687;49.540;8.574;2023-08-06T03:02:36;6.57;;;3.10;;
3347;SDS011;1687;49.540;8.574;2023-08-06T03:05:02;3.73;;;2.37;;
3347;SDS011;1687;49.540;8.574;2023-08-06T03:07:28;5.32;;;2.45;;
3347;SDS011;1687;49.540;8.574;2023-08-06T03:09:54;4.13;;;2.23;;
3347;SDS011;1687;49.540;8.574;2023-08-06T03:12:20;8.00;;;2.77;;
3347;SDS011;1687;49.540;8.574;2023-08-06T03:14:46;7.23;;;2.60;;
3347;SDS011;1687;49.540;8.574;2023-08-06T03:17:11;7.20;;;2.30;;
3347;SDS011;1687;49.540;8.574;2023-08-06T03:19:37;6.57;;;2.20;;
3347;SDS011;1687;49.540;8.574;2023-08-06T03:22:03;5.10;;;2.03;;
3347;SDS011;1687;49.540;8.574;2023-08-06T03:24:29;4.10;;;1.87;;
3347;SDS011;1687;49.540;8.574;2023-08-06T03:26:54;9.93;;;2.00;;
3347;SDS011;1687;49.540;8.574;2023-08-06T03:29:20;7.60;;;2.37;;
3347;SDS011;1687;49.540;8.574;2023-08-06T03:31:47;11.53;;;2.60;;
3347;SDS011;1687;49.540;8.574;2023-08-06T03:34:12;3.60;;;2.00;;
3347;SDS011;1687;49.540;8.574;2023-08-06T03:36:38;3.50;;;1.80;;
3347;SDS011;1687;49.540;8.574;2023-08-06T03:39:04;5.10;;;2.60;;
3347;SDS011;1687;49.540;8.574;2023-08-06T03:41:29;10.43;;;2.97;;
3347;SDS011;1687;49.540;8.574;2023-08-06T03:43:55;5.93;;;2.60;;
3347;SDS011;1687;49.540;8.574;2023-08-06T03:46:21;4.77;;;2.27;;
3347;SDS011;1687;49.540;8.574;2023-08-06T03:48:46;7.93;;;2.30;;
3347;SDS011;1687;49.540;8.574;2023-08-06T03:51:12;5.77;;;2.47;;
3347;SDS011;1687;49.540;8.574;2023-08-06T03:53:38;4.43;;;2.37;;
3347;SDS011;1687;49.540;8.574;2023-08-06T03:56:03;4.00;;;2.00;;
3347;SDS011;1687;49.540;8.574;2023-08-06T03:58:29;7.60;;;2.13;;
3347;SDS011;1687;49.540;8.574;2023-08-06T04:01:01;3.53;;;2.10;;
3347;SDS011;1687;49.540;8.574;2023-08-06T04:03:28;4.00;;;2.17;;
3347;SDS011;1687;49.540;8.574;2023-08-06T04:05:54;3.27;;;1.63;;
3347;SDS011;1687;49.540;8.574;2023-08-06T04:08:20;12.60;;;2.23;;
3347;SDS011;1687;49.540;8.574;2023-08-06T04:10:49;5.03;;;2.20;;
3347;SDS011;1687;49.540;8.574;2023-08-06T04:13:16;4.37;;;2.07;;
3347;SDS011;1687;49.540;8.574;2023-08-06T04:15:42;4.33;;;1.60;;
3347;SDS011;1687;49.540;8.574;2023-08-06T04:18:08;7.03;;;2.37;;
3347;SDS011;1687;49.540;8.574;2023-08-06T04:20:33;4.17;;;1.67;;
3347;SDS011;1687;49.540;8.574;2023-08-06T04:22:59;5.50;;;1.90;;
3347;SDS011;1687;49.540;8.574;2023-08-06T04:25:31;6.20;;;2.80;;
3347;SDS011;1687;49.540;8.574;2023-08-06T04:27:57;5.97;;;2.73;;
3347;SDS011;1687;49.540;8.574;2023-08-06T04:30:22;3.67;;;2.23;;
3347;SDS011;1687;49.540;8.574;2023-08-06T04:32:49;4.53;;;2.37;;
3347;SDS011;1687;49.540;8.574;2023-08-06T04:35:15;13.73;;;2.73;;
3347;SDS011;1687;49.540;8.574;2023-08-06T04:37:41;4.90;;;2.43;;
3347;SDS011;1687;49.540;8.574;2023-08-06T04:40:07;7.13;;;2.33;;
3347;SDS011;1687;49.540;8.574;2023-08-06T04:42:33;6.00;;;2.00;;
3347;SDS011;1687;49.540;8.574;2023-08-06T04:45:00;3.43;;;1.60;;
3347;SDS011;1687;49.540;8.574;2023-08-06T04:47:27;7.87;;;1.97;;
3347;SDS011;1687;49.540;8.574;2023-08-06T04:49:53;2.03;;;1.17;;
3347;SDS011;1687;49.540;8.574;2023-08-06T04:52:18;4.63;;;1.70;;
3347;SDS011;1687;49.540;8.574;2023-08-06T04:54:44;3.50;;;1.50;;
3347;SDS011;1687;49.540;8.574;2023-08-06T04:57:10;2.77;;;1.43;;
3347;SDS011;1687;49.540;8.574;2023-08-06T04:59:35;4.40;;;1.70;;
3347;SDS011;1687;49.540;8.574;2023-08-06T05:02:01;3.30;;;1.60;;
3347;SDS011;1687;49.540;8.574;2023-08-06T05:04:27;2.60;;;1.13;;
3347;SDS011;1687;49.540;8.574;2023-08-06T05:06:53;6.33;;;2.10;;
3347;SDS011;1687;49.540;8.574;2023-08-06T05:09:19;3.40;;;1.43;;
3347;SDS011;1687;49.540;8.574;2023-08-06T05:11:45;3.40;;;1.10;;
3347;SDS011;1687;49.540;8.574;2023-08-06T05:14:12;3.70;;;1.23;;
3347;SDS011;1687;49.540;8.574;2023-08-06T05:16:37;2.40;;;1.10;;
3347;SDS011;1687;49.540;8.574;2023-08-06T05:19:04;9.63;;;2.60;;
3347;SDS011;1687;49.540;8.574;2023-08-06T05:21:30;1.90;;;0.90;;
3347;SDS011;1687;49.540;8.574;2023-08-06T05:23:55;5.60;;;1.30;;
3347;SDS011;1687;49.540;8.574;2023-08-06T05:26:21;5.73;;;1.37;;
3347;SDS011;1687;49.540;8.574;2023-08-06T05:28:47;11.50;;;1.20;;
3347;SDS011;1687;49.540;8.574;2023-08-06T05:31:12;3.70;;;1.40;;
3347;SDS011;1687;49.540;8.574;2023-08-06T05:33:38;5.20;;;1.50;;
3347;SDS011;1687;49.540;8.574;2023-08-06T05:36:04;4.50;;;1.60;;
3347;SDS011;1687;49.540;8.574;2023-08-06T05:38:30;8.10;;;1.60;;
3347;SDS011;1687;49.540;8.574;2023-08-06T05:40:55;10.73;;;1.67;;
3347;SDS011;1687;49.540;8.574;2023-08-06T05:43:21;2.40;;;1.07;;
3347;SDS011;1687;49.540;8.574;2023-08-06T05:45:49;4.80;;;1.20;;
3347;SDS011;1687;49.540;8.574;2023-08-06T05:48:15;3.10;;;1.33;;
3347;SDS011;1687;49.540;8.574;2023-08-06T05:50:41;4.50;;;1.50;;
3347;SDS011;1687;49.540;8.574;2023-08-06T05:53:07;2.20;;;1.00;;
3347;SDS011;1687;49.540;8.574;2023-08-06T05:55:33;3.10;;;1.40;;
3347;SDS011;1687;49.540;8.574;2023-08-06T05:57:59;2.80;;;1.10;;
3347;SDS011;1687;49.540;8.574;2023-08-06T06:00:25;3.53;;;1.57;;
3347;SDS011;1687;49.540;8.574;2023-08-06T06:02:50;3.10;;;1.37;;
3347;SDS011;1687;49.540;8.574;2023-08-06T06:05:16;4.47;;;1.20;;
3347;SDS011;1687;49.540;8.574;2023-08-06T06:07:42;3.60;;;1.23;;
3347;SDS011;1687;49.540;8.574;2023-08-06T06:10:08;4.80;;;1.83;;
3347;SDS011;1687;49.540;8.574;2023-08-06T06:12:34;4.30;;;1.10;;
3347;SDS011;1687;49.540;8.574;2023-08-06T06:14:59;6.33;;;2.00;;
3347;SDS011;1687;49.540;8.574;2023-08-06T06:17:26;3.20;;;1.43;;
3347;SDS011;1687;49.540;8.574;2023-08-06T06:19:54;7.10;;;1.37;;
3347;SDS011;1687;49.540;8.574;2023-08-06T06:22:19;1.97;;;1.00;;
3347;SDS011;1687;49.540;8.574;2023-08-06T06:24:45;6.60;;;1.50;;
3347;SDS011;1687;49.540;8.574;2023-08-06T06:27:11;2.83;;;1.30;;
3347;SDS011;1687;49.540;8.574;2023-08-06T06:29:36;11.90;;;2.20;;
3347;SDS011;1687;49.540;8.574;2023-08-06T06:32:02;2.20;;;1.20;;
3347;SDS011;1687;49.540;8.574;2023-08-06T06:34:28;4.47;;;1.73;;
3347;SDS011;1687;49.540;8.574;2023-08-06T06:36:53;4.53;;;1.43;;
3347;SDS011;1687;49.540;8.574;2023-08-06T06:39:20;7.17;;;1.00;;
3347;SDS011;1687;49.540;8.574;2023-08-06T06:41:46;3.73;;;1.50;;
3347;SDS011;1687;49.540;8.574;2023-08-06T06:44:13;3.33;;;1.20;;
3347;SDS011;1687;49.540;8.574;2023-08-06T06:46:39;3.10;;;1.17;;
3347;SDS011;1687;49.540;8.574;2023-08-06T06:49:05;5.47;;;1.30;;
3347;SDS011;1687;49.540;8.574;2023-08-06T06:51:31;5.20;;;1.70;;
3347;SDS011;1687;49.540;8.574;2023-08-06T06:53:57;6.80;;;1.23;;
3347;SDS011;1687;49.540;8.574;2023-08-06T06:56:23;7.20;;;1.30;;
3347;SDS011;1687;49.540;8.574;2023-08-06T06:58:49;5.22;;;1.10;;
3347;SDS011;1687;49.540;8.574;2023-08-06T07:01:14;3.57;;;1.57;;
3347;SDS011;1687;49.540;8.574;2023-08-06T07:03:40;10.07;;;1.43;;
3347;SDS011;1687;49.540;8.574;2023-08-06T07:06:06;2.33;;;1.10;;
3347;SDS011;1687;49.540;8.574;2023-08-06T07:08:32;6.73;;;1.40;;
3347;SDS011;1687;49.540;8.574;2023-08-06T07:11:01;1.60;;;0.80;;
3347;SDS011;1687;49.540;8.574;2023-08-06T07:13:28;5.37;;;1.33;;
3347;SDS011;1687;49.540;8.574;2023-08-06T07:15:55;3.40;;;0.90;;
3347;SDS011;1687;49.540;8.574;2023-08-06T07:18:21;5.83;;;1.20;;
3347;SDS011;1687;49.540;8.574;2023-08-06T07:20:48;4.57;;;1.00;;
3347;SDS011;1687;49.540;8.574;2023-08-06T07:23:15;1.40;;;0.70;;
3347;SDS011;1687;49.540;8.574;2023-08-06T07:25:40;2.20;;;0.80;;
3347;SDS011;1687;49.540;8.574;2023-08-06T07:28:06;1.60;;;0.80;;
3347;SDS011;1687;49.540;8.574;2023-08-06T07:30:32;9.63;;;1.53;;
3347;SDS011;1687;49.540;8.574;2023-08-06T07:32:57;1.70;;;0.77;;
3347;SDS011;1687;49.540;8.574;2023-08-06T07:35:23;4.37;;;0.80;;
3347;SDS011;1687;49.540;8.574;2023-08-06T07:37:49;2.13;;;1.00;;
3347;SDS011;1687;49.540;8.574;2023-08-06T07:40:14;1.33;;;0.70;;
3347;SDS011;1687;49.540;8.574;2023-08-06T07:42:40;2.83;;;0.90;;
3347;SDS011;1687;49.540;8.574;2023-08-06T07:45:07;4.17;;;0.80;;
3347;SDS011;1687;49.540;8.574;2023-08-06T07:47:33;5.10;;;1.00;;
3347;SDS011;1687;49.540;8.574;2023-08-06T07:49:59;5.33;;;0.97;;
3347;SDS011;1687;49.540;8.574;2023-08-06T07:52:25;6.90;;;1.10;;
3347;SDS011;1687;49.540;8.574;2023-08-06T07:54:50;2.63;;;0.77;;
3347;SDS011;1687;49.540;8.574;2023-08-06T07:57:16;1.60;;;0.90;;
3347;SDS011;1687;49.540;8.574;2023-08-06T07:59:42;2.70;;;0.90;;
3347;SDS011;1687;49.540;8.574;2023-08-06T08:02:07;5.00;;;1.00;;
3347;SDS011;1687;49.540;8.574;2023-08-06T08:04:33;1.30;;;0.60;;
3347;SDS011;1687;49.540;8.574;2023-08-06T08:06:58;1.30;;;0.70;;
3347;SDS011;1687;49.540;8.574;2023-08-06T08:09:24;1.47;;;0.80;;
3347;SDS011;1687;49.540;8.574;2023-08-06T08:11:50;2.23;;;0.80;;
3347;SDS011;1687;49.540;8.574;2023-08-06T08:14:17;1.37;;;0.80;;
3347;SDS011;1687;49.540;8.574;2023-08-06T08:16:43;1.30;;;0.70;;
3347;SDS011;1687;49.540;8.574;2023-08-06T08:19:08;1.60;;;0.80;;
3347;SDS011;1687;49.540;8.574;2023-08-06T08:21:34;2.33;;;0.77;;
3347;SDS011;1687;49.540;8.574;2023-08-06T08:24:00;2.73;;;0.70;;
3347;SDS011;1687;49.540;8.574;2023-08-06T08:26:26;1.50;;;0.70;;
3347;SDS011;1687;49.540;8.574;2023-08-06T08:28:55;1.20;;;0.70;;
3347;SDS011;1687;49.540;8.574;2023-08-06T08:31:21;1.50;;;0.80;;
3347;SDS011;1687;49.540;8.574;2023-08-06T08:33:47;1.97;;;0.70;;
3347;SDS011;1687;49.540;8.574;2023-08-06T08:36:13;1.77;;;0.83;;
3347;SDS011;1687;49.540;8.574;2023-08-06T08:38:38;1.57;;;0.80;;
3347;SDS011;1687;49.540;8.574;2023-08-06T08:41:04;1.97;;;0.80;;
3347;SDS011;1687;49.540;8.574;2023-08-06T08:43:30;1.83;;;0.75;;
3347;SDS011;1687;49.540;8.574;2023-08-06T08:45:57;1.30;;;0.70;;
3347;SDS011;1687;49.540;8.574;2023-08-06T08:48:24;2.17;;;0.73;;
3347;SDS011;1687;49.540;8.574;2023-08-06T08:50:50;1.85;;;0.70;;
3347;SDS011;1687;49.540;8.574;2023-08-06T08:53:16;3.30;;;0.80;;
3347;SDS011;1687;49.540;8.574;2023-08-06T08:55:43;1.40;;;0.77;;
3347;SDS011;1687;49.540;8.574;2023-08-06T08:58:12;1.30;;;0.70;;
3347;SDS011;1687;49.540;8.574;2023-08-06T09:00:39;1.23;;;0.70;;
3347;SDS011;1687;49.540;8.574;2023-08-06T09:03:07;1.30;;;0.70;;
3347;SDS011;1687;49.540;8.574;2023-08-06T09:05:33;1.30;;;0.60;;
3347;SDS011;1687;49.540;8.574;2023-08-06T09:08:03;1.53;;;0.70;;
3347;SDS011;1687;49.540;8.574;2023-08-06T09:10:30;2.00;;;0.80;;
3347;SDS011;1687;49.540;8.574;2023-08-06T09:12:56;2.43;;;0.80;;
3347;SDS011;1687;49.540;8.574;2023-08-06T09:15:26;1.53;;;0.80;;
3347;SDS011;1687;49.540;8.574;2023-08-06T09:17:53;1.60;;;0.70;;
3347;SDS011;1687;49.540;8.574;2023-08-06T09:20:19;1.67;;;0.80;;
3347;SDS011;1687;49.540;8.574;2023-08-06T09:22:46;1.40;;;0.70;;
3347;SDS011;1687;49.540;8.574;2023-08-06T09:25:20;3.97;;;0.90;;
3347;SDS011;1687;49.540;8.574;2023-08-06T09:27:50;3.65;;;0.80;;
3347;SDS011;1687;49.540;8.574;2023-08-06T09:30:30;1.40;;;0.70;;
3347;SDS011;1687;49.540;8.574;2023-08-06T09:33:00;1.40;;;0.70;;
3347;SDS011;1687;49.540;8.574;2023-08-06T09:35:30;1.20;;;0.70;;
3347;SDS011;1687;49.540;8.574;2023-08-06T09:38:04;1.53;;;0.73;;
3347;SDS011;1687;49.540;8.574;2023-08-06T09:40:32;1.30;;;0.60;;
3347;SDS011;1687;49.540;8.574;2023-08-06T09:42:58;1.40;;;0.70;;
3347;SDS011;1687;49.540;8.574;2023-08-06T09:45:42;1.50;;;0.70;;
3347;SDS011;1687;49.540;8.574;2023-08-06T09:48:09;2.70;;;0.70;;
3347;SDS011;1687;49.540;8.574;2023-08-06T09:50:36;1.50;;;0.70;;
3347;SDS011;1687;49.540;8.574;2023-08-06T09:53:04;1.90;;;0.80;;
3347;SDS011;1687;49.540;8.574;2023-08-06T09:55:31;1.83;;;0.70;;
3347;SDS011;1687;49.540;8.574;2023-08-06T09:57:58;1.80;;;0.80;;
3347;SDS011;1687;49.540;8.574;2023-08-06T10:00:25;1.27;;;0.70;;
3347;SDS011;1687;49.540;8.574;2023-08-06T10:02:51;1.17;;;0.63;;
3347;SDS011;1687;49.540;8.574;2023-08-06T10:05:21;1.70;;;0.90;;
3347;SDS011;1687;49.540;8.574;2023-08-06T10:07:47;1.20;;;0.60;;
3347;SDS011;1687;49.540;8.574;2023-08-06T10:10:15;1.63;;;0.80;;
3347;SDS011;1687;49.540;8.574;2023-08-06T10:12:49;1.20;;;0.70;;
3347;SDS011;1687;49.540;8.574;2023-08-06T10:15:20;1.80;;;0.70;;
3347;SDS011;1687;49.540;8.574;2023-08-06T10:17:51;1.30;;;0.70;;
3347;SDS011;1687;49.540;8.574;2023-08-06T10:20:21;1.83;;;0.80;;
3347;SDS011;1687;49.540;8.574;2023-08-06T10:22:59;1.20;;;0.60;;
3347;SDS011;1687;49.540;8.574;2023-08-06T10:25:36;1.70;;;0.70;;
3347;SDS011;1687;49.540;8.574;2023-08-06T10:28:08;1.30;;;0.60;;
3347;SDS011;1687;49.540;8.574;2023-08-06T10:30:44;1.70;;;0.80;;
3347;SDS011;1687;49.540;8.574;2023-08-06T10:33:11;1.50;;;0.70;;
3347;SDS011;1687;49.540;8.574;2023-08-06T10:35:45;1.20;;;0.70;;
3347;SDS011;1687;49.540;8.574;2023-08-06T10:38:19;1.73;;;0.73;;
3347;SDS011;1687;49.540;8.574;2023-08-06T10:45:55;1.50;;;0.80;;
3347;SDS011;1687;49.540;8.574;2023-08-06T10:48:35;1.83;;;0.90;;
3347;SDS011;1687;49.540;8.574;2023-08-06T10:51:04;1.30;;;0.70;;
3347;SDS011;1687;49.540;8.574;2023-08-06T10:53:37;1.60;;;0.80;;
3347;SDS011;1687;49.540;8.574;2023-08-06T10:56:19;3.67;;;0.87;;
3347;SDS011;1687;49.540;8.574;2023-08-06T10:58:50;1.60;;;0.70;;
3347;SDS011;1687;49.540;8.574;2023-08-06T11:01:18;1.60;;;0.80;;
3347;SDS011;1687;49.540;8.574;2023-08-06T11:03:45;1.87;;;0.70;;
3347;SDS011;1687;49.540;8.574;2023-08-06T11:06:18;3.10;;;1.10;;
3347;SDS011;1687;49.540;8.574;2023-08-06T11:08:53;1.53;;;0.70;;
3347;SDS011;1687;49.540;8.574;2023-08-06T11:11:20;2.90;;;0.80;;
3347;SDS011;1687;49.540;8.574;2023-08-06T11:13:48;4.30;;;1.10;;
3347;SDS011;1687;49.540;8.574;2023-08-06T11:16:16;2.90;;;1.07;;
3347;SDS011;1687;49.540;8.574;2023-08-06T11:18:44;1.73;;;0.80;;
3347;SDS011;1687;49.540;8.574;2023-08-06T11:21:10;1.90;;;0.90;;
3347;SDS011;1687;49.540;8.574;2023-08-06T11:23:37;4.93;;;0.90;;
3347;SDS011;1687;49.540;8.574;2023-08-06T11:26:03;2.10;;;0.90;;
3347;SDS011;1687;49.540;8.574;2023-08-06T11:28:29;4.85;;;0.90;;
3347;SDS011;1687;49.540;8.574;2023-08-06T11:30:55;4.13;;;0.90;;
3347;SDS011;1687;49.540;8.574;2023-08-06T11:33:22;3.10;;;1.13;;
3347;SDS011;1687;49.540;8.574;2023-08-06T11:35:52;2.77;;;1.30;;
3347;SDS011;1687;49.540;8.574;2023-08-06T11:38:20;2.90;;;0.83;;
3347;SDS011;1687;49.540;8.574;2023-08-06T11:40:45;1.75;;;0.80;;
3347;SDS011;1687;49.540;8.574;2023-08-06T11:43:12;1.73;;;0.80;;
3347;SDS011;1687;49.540;8.574;2023-08-06T11:45:39;1.60;;;0.80;;
3347;SDS011;1687;49.540;8.574;2023-08-06T11:48:05;1.63;;;0.83;;
3347;SDS011;1687;49.540;8.574;2023-08-06T11:50:36;1.52;;;0.80;;
3347;SDS011;1687;49.540;8.574;2023-08-06T11:53:05;1.30;;;0.70;;
3347;SDS011;1687;49.540;8.574;2023-08-06T11:55:31;1.63;;;0.80;;
3347;SDS011;1687;49.540;8.574;2023-08-06T11:57:57;1.70;;;0.90;;
3347;SDS011;1687;49.540;8.574;2023-08-06T12:00:24;2.13;;;0.80;;
3347;SDS011;1687;49.540;8.574;2023-08-06T12:02:50;1.60;;;0.83;;
3347;SDS011;1687;49.540;8.574;2023-08-06T12:05:21;2.40;;;1.00;;
3347;SDS011;1687;49.540;8.574;2023-08-06T12:07:55;1.97;;;0.90;;
3347;SDS011;1687;49.540;8.574;2023-08-06T12:10:26;3.53;;;1.17;;
3347;SDS011;1687;49.540;8.574;2023-08-06T12:12:54;2.90;;;0.80;;
3347;SDS011;1687;49.540;8.574;2023-08-06T12:15:20;2.25;;;0.90;;
3347;SDS011;1687;49.540;8.574;2023-08-06T12:17:47;1.70;;;0.90;;
3347;SDS011;1687;49.540;8.574;2023-08-06T12:20:12;2.03;;;0.80;;
3347;SDS011;1687;49.540;8.574;2023-08-06T12:22:38;2.20;;;1.10;;
3347;SDS011;1687;49.540;8.574;2023-08-06T12:25:09;2.00;;;0.87;;
3347;SDS011;1687;49.540;8.574;2023-08-06T12:27:37;2.00;;;1.03;;
3347;SDS011;1687;49.540;8.574;2023-08-06T12:30:07;3.13;;;1.00;;
3347;SDS011;1687;49.540;8.574;2023-08-06T12:32:34;1.65;;;0.82;;
3347;SDS011;1687;49.540;8.574;2023-08-06T12:35:00;2.20;;;1.10;;
3347;SDS011;1687;49.540;8.574;2023-08-06T12:37:26;8.57;;;1.20;;
3347;SDS011;1687;49.540;8.574;2023-08-06T12:39:52;1.90;;;0.80;;
3347;SDS011;1687;49.540;8.574;2023-08-06T12:42:18;3.10;;;1.20;;
3347;SDS011;1687;49.540;8.574;2023-08-06T12:44:44;6.70;;;1.30;;
3347;SDS011;1687;49.540;8.574;2023-08-06T12:47:09;2.03;;;0.90;;
3347;SDS011;1687;49.540;8.574;2023-08-06T12:49:35;2.43;;;0.93;;
3347;SDS011;1687;49.540;8.574;2023-08-06T12:52:01;4.50;;;1.20;;
3347;SDS011;1687;49.540;8.574;2023-08-06T12:54:29;1.77;;;1.00;;
3347;SDS011;1687;49.540;8.574;2023-08-06T12:57:01;2.53;;;1.17;;
3347;SDS011;1687;49.540;8.574;2023-08-06T12:59:27;1.70;;;0.90;;
3347;SDS011;1687;49.540;8.574;2023-08-06T13:01:53;3.67;;;1.20;;
3347;SDS011;1687;49.540;8.574;2023-08-06T13:04:19;3.20;;;1.30;;
3347;SDS011;1687;49.540;8.574;2023-08-06T13:06:45;4.53;;;1.40;;
3347;SDS011;1687;49.540;8.574;2023-08-06T13:09:10;2.17;;;1.00;;
3347;SDS011;1687;49.540;8.574;2023-08-06T13:11:38;1.60;;;0.87;;
3347;SDS011;1687;49.540;8.574;2023-08-06T13:14:06;2.50;;;1.50;;
3347;SDS011;1687;49.540;8.574;2023-08-06T13:16:34;4.90;;;1.23;;
3347;SDS011;1687;49.540;8.574;2023-08-06T13:19:06;3.90;;;1.47;;
3347;SDS011;1687;49.540;8.574;2023-08-06T13:21:33;3.40;;;1.10;;
3347;SDS011;1687;49.540;8.574;2023-08-06T13:24:01;3.43;;;0.97;;
3347;SDS011;1687;49.540;8.574;2023-08-06T13:26:30;2.40;;;1.03;;
3347;SDS011;1687;49.540;8.574;2023-08-06T13:28:57;1.65;;;0.80;;
3347;SDS011;1687;49.540;8.574;2023-08-06T13:31:23;2.73;;;1.63;;
3347;SDS011;1687;49.540;8.574;2023-08-06T13:33:50;1.70;;;0.80;;
3347;SDS011;1687;49.540;8.574;2023-08-06T13:36:17;2.80;;;1.10;;
3347;SDS011;1687;49.540;8.574;2023-08-06T13:38:43;3.70;;;0.77;;
3347;SDS011;1687;49.540;8.574;2023-08-06T13:41:08;2.17;;;1.00;;
3347;SDS011;1687;49.540;8.574;2023-08-06T13:43:34;1.60;;;0.73;;
3347;SDS011;1687;49.540;8.574;2023-08-06T13:46:00;2.80;;;1.10;;
3347;SDS011;1687;49.540;8.574;2023-08-06T13:48:25;4.50;;;1.07;;
3347;SDS011;1687;49.540;8.574;2023-08-06T13:50:52;2.17;;;1.00;;
3347;SDS011;1687;49.540;8.574;2023-08-06T13:53:17;2.33;;;1.00;;
3347;SDS011;1687;49.540;8.574;2023-08-06T13:55:43;8.32;;;2.00;;
3347;SDS011;1687;49.540;8.574;2023-08-06T13:58:09;2.47;;;0.90;;
3347;SDS011;1687;49.540;8.574;2023-08-06T14:00:37;2.53;;;1.10;;
3347;SDS011;1687;49.540;8.574;2023-08-06T14:03:03;3.60;;;1.20;;
3347;SDS011;1687;49.540;8.574;2023-08-06T14:05:29;3.10;;;1.60;;
3347;SDS011;1687;49.540;8.574;2023-08-06T14:07:54;4.43;;;1.33;;
3347;SDS011;1687;49.540;8.574;2023-08-06T14:10:20;2.80;;;1.30;;
3347;SDS011;1687;49.540;8.574;2023-08-06T14:12:46;3.40;;;1.37;;
3347;SDS011;1687;49.540;8.574;2023-08-06T14:15:12;3.80;;;1.30;;
3347;SDS011;1687;49.540;8.574;2023-08-06T14:17:38;3.53;;;1.50;;
3347;SDS011;1687;49.540;8.574;2023-08-06T14:20:05;3.10;;;1.43;;
3347;SDS011;1687;49.540;8.574;2023-08-06T14:22:33;2.90;;;1.00;;
3347;SDS011;1687;49.540;8.574;2023-08-06T14:24:59;2.53;;;1.30;;
3347;SDS011;1687;49.540;8.574;2023-08-06T14:27:25;5.00;;;1.30;;
3347;SDS011;1687;49.540;8.574;2023-08-06T14:29:51;4.50;;;2.60;;
3347;SDS011;1687;49.540;8.574;2023-08-06T14:32:16;4.77;;;2.40;;
3347;SDS011;1687;49.540;8.574;2023-08-06T14:34:46;8.30;;;4.40;;
3347;SDS011;1687;49.540;8.574;2023-08-06T14:37:12;2.63;;;1.20;;
3347;SDS011;1687;49.540;8.574;2023-08-06T14:39:37;2.30;;;1.00;;
3347;SDS011;1687;49.540;8.574;2023-08-06T14:42:04;3.83;;;1.43;;
3347;SDS011;1687;49.540;8.574;2023-08-06T14:44:30;2.75;;;1.08;;
3347;SDS011;1687;49.540;8.574;2023-08-06T14:46:55;1.47;;;0.77;;
3347;SDS011;1687;49.540;8.574;2023-08-06T14:49:21;3.40;;;1.30;;
3347;SDS011;1687;49.540;8.574;2023-08-06T14:51:48;1.83;;;1.10;;
3347;SDS011;1687;49.540;8.574;2023-08-06T14:54:14;2.53;;;1.00;;
3347;SDS011;1687;49.540;8.574;2023-08-06T14:56:39;6.30;;;1.00;;
3347;SDS011;1687;49.540;8.574;2023-08-06T14:59:05;2.70;;;0.97;;
3347;SDS011;1687;49.540;8.574;2023-08-06T15:01:31;1.50;;;0.70;;
3347;SDS011;1687;49.540;8.574;2023-08-06T15:03:56;2.13;;;0.90;;
3347;SDS011;1687;49.540;8.574;2023-08-06T15:06:23;4.13;;;1.30;;
3347;SDS011;1687;49.540;8.574;2023-08-06T15:08:49;5.03;;;1.17;;
3347;SDS011;1687;49.540;8.574;2023-08-06T15:11:14;3.00;;;1.50;;
3347;SDS011;1687;49.540;8.574;2023-08-06T15:13:40;3.13;;;1.23;;
3347;SDS011;1687;49.540;8.574;2023-08-06T15:16:06;2.43;;;1.10;;
3347;SDS011;1687;49.540;8.574;2023-08-06T15:18:32;2.00;;;0.80;;
3347;SDS011;1687;49.540;8.574;2023-08-06T15:20:57;1.57;;;0.80;;
3347;SDS011;1687;49.540;8.574;2023-08-06T15:23:23;2.70;;;1.17;;